createdAt,value
2022-09-21T00:03:17.745Z,2.00
2022-09-21T00:07:16.624Z,2.10
2022-09-21T00:12:10.119Z,2.70
2022-09-21T00:14:36.876Z,2.00
2022-09-21T00:19:30.551Z,2.00
2022-09-21T00:21:57.475Z,2.10
2022-09-21T00:24:24.168Z,1.90
2022-09-21T00:29:17.718Z,1.90
2022-09-21T00:31:44.493Z,2.70
2022-09-21T00:36:37.915Z,2.40
2022-09-21T00:41:34.207Z,2.20
2022-09-21T00:46:42.850Z,2.20
2022-09-21T00:51:36.711Z,2.30
2022-09-21T00:54:07.625Z,3.00
2022-09-21T00:56:34.456Z,2.40
2022-09-21T00:59:01.169Z,2.60
2022-09-21T01:03:57.273Z,3.10
2022-09-21T01:06:24.600Z,2.60
2022-09-21T01:08:53.479Z,2.20
2022-09-21T01:11:30.770Z,2.10
2022-09-21T01:16:44.413Z,2.00
2022-09-21T01:19:45.277Z,2.20
2022-09-21T01:22:38.258Z,2.40
2022-09-21T01:25:49.649Z,2.30
2022-09-21T01:28:41.829Z,1.90
2022-09-21T01:31:12.067Z,2.30
2022-09-21T01:33:45.663Z,2.00
2022-09-21T01:36:14.168Z,2.30
2022-09-21T01:38:50.383Z,2.10
2022-09-21T01:41:19.557Z,2.40
2022-09-21T01:43:48.204Z,2.50
2022-09-21T01:46:17.301Z,2.50
2022-09-21T01:48:45.803Z,2.50
2022-09-21T01:51:14.919Z,2.30
2022-09-21T01:53:44.415Z,2.60
2022-09-21T01:56:12.643Z,2.60
2022-09-21T01:58:47.907Z,2.20
2022-09-21T02:01:16.932Z,2.20
2022-09-21T02:03:51.681Z,2.30
2022-09-21T02:06:18.527Z,2.00
2022-09-21T02:11:13.515Z,2.60
2022-09-21T02:13:43.146Z,2.40
2022-09-21T02:16:12.326Z,2.00
2022-09-21T02:19:18.028Z,2.70
2022-09-21T02:22:03.932Z,2.50
2022-09-21T02:24:43.866Z,3.00
2022-09-21T02:27:13.574Z,3.10
2022-09-21T02:29:50.924Z,2.60
2022-09-21T02:34:53.688Z,2.70
2022-09-21T02:37:23.960Z,2.70
2022-09-21T02:39:59.547Z,2.30
2022-09-21T02:42:28.598Z,2.40
2022-09-21T02:45:05.879Z,2.40
2022-09-21T02:50:13.117Z,2.30
2022-09-21T02:52:40.781Z,2.90
2022-09-21T02:55:07.986Z,2.40
2022-09-21T02:57:34.772Z,2.50
2022-09-21T03:02:42.337Z,2.80
2022-09-21T03:05:09.400Z,2.50
2022-09-21T03:07:36.192Z,2.30
2022-09-21T03:12:29.825Z,2.40
2022-09-21T03:17:23.191Z,2.30
2022-09-21T03:22:17.925Z,2.40
2022-09-21T03:24:47.617Z,2.40
2022-09-21T03:27:18.751Z,2.20
2022-09-21T03:29:45.738Z,2.40
2022-09-21T03:32:12.715Z,2.50
2022-09-21T03:34:39.475Z,1.80
2022-09-21T03:37:06.977Z,1.80
2022-09-21T03:39:33.818Z,2.70
2022-09-21T03:42:00.895Z,2.30
2022-09-21T03:44:27.666Z,2.30
2022-09-21T03:49:21.117Z,2.20
2022-09-21T03:54:14.884Z,2.70
2022-09-21T03:56:41.819Z,2.30
2022-09-21T03:59:13.172Z,1.90
2022-09-21T04:01:40.844Z,2.30
2022-09-21T04:04:07.750Z,2.10
2022-09-21T04:09:03.005Z,2.50
2022-09-21T04:11:30.170Z,2.00
2022-09-21T04:13:57.369Z,2.80
2022-09-21T04:16:25.469Z,2.20
2022-09-21T04:18:52.293Z,2.80
2022-09-21T04:23:46.170Z,3.80
2022-09-21T04:26:27.121Z,3.50
2022-09-21T04:28:54.083Z,2.70
2022-09-21T04:31:21.367Z,2.50
2022-09-21T04:33:49.649Z,2.50
2022-09-21T04:36:17.690Z,2.60
2022-09-21T04:38:44.881Z,3.30
2022-09-21T04:41:11.993Z,3.00
2022-09-21T04:43:41.490Z,2.60
2022-09-21T04:46:09.586Z,2.40
2022-09-21T04:48:36.427Z,2.80
2022-09-21T04:53:30.363Z,3.00
2022-09-21T04:55:57.135Z,3.00
2022-09-21T05:00:52.283Z,2.90
2022-09-21T05:03:19.243Z,3.60
2022-09-21T05:05:49.739Z,3.30
2022-09-21T05:08:16.842Z,2.90
2022-09-21T05:10:44.134Z,3.80
2022-09-21T05:13:10.901Z,4.20
2022-09-21T05:20:32.485Z,2.70
2022-09-21T05:23:02.399Z,2.60
2022-09-21T05:25:29.315Z,2.50
2022-09-21T05:27:56.129Z,2.90
2022-09-21T05:30:23.079Z,2.80
2022-09-21T05:32:57.149Z,2.50
2022-09-21T05:35:29.941Z,2.40
2022-09-21T05:38:18.428Z,2.40
2022-09-21T05:40:47.782Z,2.40
2022-09-21T05:43:14.905Z,2.10
2022-09-21T05:45:47.601Z,2.40
2022-09-21T05:48:19.240Z,2.20
2022-09-21T05:50:50.120Z,1.80
2022-09-21T05:53:29.248Z,1.90
2022-09-21T05:56:00.939Z,1.90
2022-09-21T05:58:30.724Z,1.50
2022-09-21T06:01:01.042Z,1.80
2022-09-21T06:03:32.409Z,1.90
2022-09-21T06:05:59.423Z,1.70
2022-09-21T06:08:26.417Z,2.10
2022-09-21T06:10:53.253Z,2.30
2022-09-21T06:15:46.671Z,2.10
2022-09-21T06:20:45.265Z,1.90
2022-09-21T06:23:12.652Z,1.80
2022-09-21T06:25:39.436Z,1.90
2022-09-21T06:30:36.717Z,1.60
2022-09-21T06:33:04.520Z,1.90
2022-09-21T06:35:31.846Z,2.20
2022-09-21T06:38:16.732Z,1.90
2022-09-21T06:40:43.591Z,2.00
2022-09-21T06:43:10.383Z,1.90
2022-09-21T06:48:04.016Z,1.90
2022-09-21T06:50:30.789Z,2.10
2022-09-21T06:55:26.568Z,1.70
2022-09-21T06:57:53.411Z,2.00
2022-09-21T07:02:46.900Z,2.40
2022-09-21T07:07:40.560Z,2.50
2022-09-21T07:10:13.147Z,2.50
2022-09-21T07:12:41.722Z,2.10
2022-09-21T07:15:10.426Z,2.20
2022-09-21T07:17:38.480Z,2.50
2022-09-21T07:20:05.877Z,2.30
2022-09-21T07:22:32.840Z,2.40
2022-09-21T07:24:59.777Z,2.80
2022-09-21T07:27:26.693Z,2.40
2022-09-21T07:29:53.526Z,2.60
2022-09-21T07:32:20.285Z,2.20
2022-09-21T07:37:14.498Z,2.30
2022-09-21T07:39:41.322Z,2.10
2022-09-21T07:42:08.091Z,2.10
2022-09-21T07:47:03.531Z,1.90
2022-09-21T07:49:30.358Z,2.30
2022-09-21T07:54:30.548Z,1.80
2022-09-21T07:59:42.609Z,2.10
2022-09-21T08:04:36.356Z,2.20
2022-09-21T08:07:03.284Z,2.30
2022-09-21T08:09:30.051Z,1.90
2022-09-21T08:14:26.534Z,2.80
2022-09-21T08:16:53.685Z,2.20
2022-09-21T08:19:20.991Z,3.10
2022-09-21T08:21:54.924Z,3.00
2022-09-21T08:24:25.846Z,2.50
2022-09-21T08:26:52.897Z,2.80
2022-09-21T08:29:19.723Z,2.90
2022-09-21T08:31:46.908Z,2.70
2022-09-21T08:34:14.353Z,3.40
2022-09-21T08:36:41.148Z,2.60
2022-09-21T08:39:08.555Z,2.50
2022-09-21T08:41:41.326Z,2.80
2022-09-21T08:44:15.244Z,2.90
2022-09-21T08:46:42.135Z,2.90
2022-09-21T08:49:13.918Z,3.50
2022-09-21T08:51:55.619Z,3.30
2022-09-21T08:54:29.332Z,2.80
2022-09-21T08:57:11.521Z,3.50
2022-09-21T08:59:39.248Z,3.40
2022-09-21T09:02:38.805Z,3.70
2022-09-21T09:05:24.821Z,3.10
2022-09-21T09:08:19.941Z,3.40
2022-09-21T09:11:40.219Z,3.00
2022-09-21T09:14:14.896Z,3.00
2022-09-21T09:17:06.193Z,3.30
2022-09-21T09:19:38.256Z,3.00
2022-09-21T09:22:05.129Z,3.20
2022-09-21T09:24:33.679Z,2.70
2022-09-21T09:27:22.262Z,2.60
2022-09-21T09:29:53.841Z,3.10
2022-09-21T09:32:20.913Z,2.30
2022-09-21T09:35:05.367Z,2.50
2022-09-21T09:37:34.171Z,2.40
2022-09-21T09:40:01.300Z,2.40
2022-09-21T09:42:37.127Z,2.80
2022-09-21T09:45:13.340Z,2.60
2022-09-21T09:48:16.035Z,2.00
2022-09-21T09:50:42.922Z,2.50
2022-09-21T09:53:12.779Z,2.30
2022-09-21T09:55:41.144Z,2.70
2022-09-21T09:58:19.117Z,2.10
2022-09-21T10:00:54.207Z,2.10
2022-09-21T10:03:23.120Z,1.80
2022-09-21T10:05:50.085Z,2.40
2022-09-21T10:08:39.299Z,1.70
2022-09-21T10:11:06.139Z,2.20
2022-09-21T10:13:39.755Z,2.20
2022-09-21T10:16:19.696Z,2.40
2022-09-21T10:18:52.470Z,2.50
2022-09-21T10:21:20.535Z,2.10
2022-09-21T10:23:53.726Z,1.80
2022-09-21T10:26:20.659Z,1.90
2022-09-21T10:29:01.203Z,1.60
2022-09-21T10:31:31.026Z,2.00
2022-09-21T10:34:03.883Z,1.60
2022-09-21T10:36:37.034Z,1.80
2022-09-21T10:39:18.763Z,1.80
2022-09-21T10:42:03.951Z,2.10
2022-09-21T10:44:50.724Z,2.40
2022-09-21T10:47:37.222Z,2.60
2022-09-21T10:50:06.174Z,2.90
2022-09-21T10:52:52.271Z,3.20
2022-09-21T10:55:20.850Z,2.60
2022-09-21T10:57:47.740Z,2.50
2022-09-21T11:00:35.469Z,2.30
2022-09-21T11:03:30.150Z,2.70
2022-09-21T11:06:04.718Z,2.60
2022-09-21T11:08:47.379Z,2.90
2022-09-21T11:11:30.299Z,2.70
2022-09-21T11:14:18.367Z,2.50
2022-09-21T11:16:54.833Z,2.50
2022-09-21T11:19:35.462Z,2.70
2022-09-21T11:22:05.198Z,2.60
2022-09-21T11:25:11.255Z,2.40
2022-09-21T11:27:40.286Z,2.70
2022-09-21T11:30:13.405Z,2.50
2022-09-21T11:32:52.986Z,2.10
2022-09-21T11:36:04.875Z,2.80
2022-09-21T11:38:38.796Z,2.50
2022-09-21T11:41:21.959Z,2.60
2022-09-21T11:43:51.480Z,3.10
2022-09-21T11:46:27.285Z,3.20
2022-09-21T11:49:03.190Z,3.20
2022-09-21T11:51:38.372Z,3.40
2022-09-21T11:54:20.720Z,3.00
2022-09-21T11:57:01.231Z,3.40
2022-09-21T12:00:02.271Z,2.90
2022-09-21T12:02:55.956Z,3.00
2022-09-21T12:05:45.449Z,2.30
2022-09-21T12:08:36.458Z,1.80
2022-09-21T12:11:14.105Z,1.50
2022-09-21T12:13:50.598Z,1.60
2022-09-21T12:16:39.061Z,1.80
2022-09-21T12:19:24.001Z,1.50
2022-09-21T12:24:26.547Z,1.60
2022-09-21T12:26:57.597Z,1.90
2022-09-21T12:29:37.167Z,1.60
2022-09-21T12:32:25.371Z,1.80
2022-09-21T12:34:56.301Z,1.40
2022-09-21T12:37:46.298Z,2.20
2022-09-21T12:40:28.461Z,1.40
2022-09-21T12:43:03.791Z,1.10
2022-09-21T12:45:34.769Z,1.40
2022-09-21T12:48:06.434Z,1.70
2022-09-21T12:50:43.161Z,1.10
2022-09-21T12:53:17.207Z,0.90
2022-09-21T12:56:18.299Z,1.10
2022-09-21T12:59:03.159Z,1.10
2022-09-21T13:01:31.851Z,1.30
2022-09-21T13:04:12.372Z,1.40
2022-09-21T13:07:02.134Z,1.70
2022-09-21T13:09:28.918Z,2.60
2022-09-21T13:14:36.306Z,10.00
2022-09-21T13:17:04.657Z,4.50
2022-09-21T13:19:33.541Z,2.30
2022-09-21T13:22:16.113Z,1.80
2022-09-21T13:24:42.950Z,2.20
2022-09-21T13:29:38.085Z,2.90
2022-09-21T13:32:14.070Z,1.90
2022-09-21T13:34:44.429Z,2.50
2022-09-21T13:37:11.187Z,2.60
2022-09-21T13:39:48.579Z,2.40
2022-09-21T13:42:30.884Z,2.30
2022-09-21T13:45:18.739Z,3.10
2022-09-21T13:50:23.523Z,3.30
2022-09-21T13:53:20.048Z,2.80
2022-09-21T13:55:51.076Z,2.30
2022-09-21T13:58:21.091Z,2.30
2022-09-21T14:00:56.378Z,2.00
2022-09-21T14:03:39.891Z,2.00
2022-09-21T14:06:15.801Z,2.00
2022-09-21T14:08:54.932Z,2.20
2022-09-21T14:11:31.687Z,2.80
2022-09-21T14:14:09.581Z,2.20
2022-09-21T14:16:39.564Z,1.50
2022-09-21T14:19:15.457Z,1.60
2022-09-21T14:22:05.482Z,2.00
2022-09-21T14:24:42.792Z,1.60
2022-09-21T14:29:48.775Z,1.40
2022-09-21T14:32:19.397Z,1.50
2022-09-21T14:34:47.691Z,1.20
2022-09-21T14:37:36.738Z,1.10
2022-09-21T14:40:17.069Z,1.40
2022-09-21T14:42:44.436Z,1.60
2022-09-21T14:45:18.134Z,1.90
2022-09-21T14:48:03.198Z,5.70
2022-09-21T14:50:47.893Z,4.10
2022-09-21T14:53:23.997Z,3.50
2022-09-21T14:56:10.832Z,3.80
2022-09-21T14:59:27.954Z,2.10
2022-09-21T15:02:16.390Z,1.40
2022-09-21T15:05:14.041Z,2.10
2022-09-21T15:08:21.349Z,2.70
2022-09-21T15:10:56.901Z,2.10
2022-09-21T15:14:01.108Z,1.60
2022-09-21T15:16:36.768Z,1.70
2022-09-21T15:19:37.320Z,1.60
2022-09-21T15:22:16.654Z,1.20
2022-09-21T15:24:57.292Z,1.80
2022-09-21T15:27:27.820Z,1.80
2022-09-21T15:29:55.616Z,1.50
2022-09-21T15:32:38.976Z,1.80
2022-09-21T15:35:32.733Z,1.80
2022-09-21T15:38:00.896Z,2.00
2022-09-21T15:40:35.610Z,1.50
2022-09-21T15:43:11.542Z,1.70
2022-09-21T15:45:59.273Z,2.30
2022-09-21T15:48:27.386Z,1.90
2022-09-21T15:50:58.235Z,2.40
2022-09-21T15:53:26.658Z,2.40
2022-09-21T15:55:55.260Z,2.60
2022-09-21T15:58:37.301Z,2.50
2022-09-21T16:01:11.159Z,2.60
2022-09-21T16:03:39.042Z,2.20
2022-09-21T16:06:29.026Z,2.90
2022-09-21T16:08:55.913Z,3.00
2022-09-21T16:11:29.852Z,2.90
2022-09-21T16:14:37.759Z,2.70
2022-09-21T16:17:11.617Z,3.10
2022-09-21T16:19:59.103Z,3.30
2022-09-21T16:22:29.500Z,3.60
2022-09-21T16:25:00.749Z,3.90
2022-09-21T16:27:29.267Z,4.10
2022-09-21T16:29:56.988Z,5.30
2022-09-21T16:32:32.066Z,13.40
2022-09-21T16:35:29.409Z,16.50
2022-09-21T16:37:59.079Z,16.90
2022-09-21T16:40:27.087Z,17.10
2022-09-21T16:42:54.350Z,15.00
2022-09-21T16:45:31.862Z,11.90
2022-09-21T16:47:59.647Z,14.90
2022-09-21T16:50:26.679Z,15.00
2022-09-21T16:52:53.633Z,15.90
2022-09-21T16:55:22.427Z,13.40
2022-09-21T16:57:51.255Z,12.60
2022-09-21T17:00:20.750Z,8.80
2022-09-21T17:02:48.260Z,7.40
2022-09-21T17:05:18.188Z,6.60
2022-09-21T17:07:55.382Z,6.00
2022-09-21T17:12:52.019Z,8.30
2022-09-21T17:15:18.842Z,7.50
2022-09-21T17:17:45.711Z,7.80
2022-09-21T17:20:20.845Z,8.30
2022-09-21T17:22:48.311Z,8.10
2022-09-21T17:25:15.310Z,7.00
2022-09-21T17:27:45.247Z,6.40
2022-09-21T17:30:13.452Z,7.00
2022-09-21T17:32:42.586Z,6.40
2022-09-21T17:35:19.049Z,6.80
2022-09-21T17:37:46.069Z,6.60
2022-09-21T17:40:13.799Z,7.50
2022-09-21T17:42:43.239Z,6.70
2022-09-21T17:45:21.627Z,5.60
2022-09-21T17:47:50.518Z,7.30
2022-09-21T17:50:20.976Z,6.50
2022-09-21T17:53:06.357Z,7.40
2022-09-21T17:55:33.544Z,7.30
2022-09-21T17:58:23.392Z,7.00
2022-09-21T18:01:28.079Z,7.70
2022-09-21T18:03:55.164Z,9.90
2022-09-21T18:06:22.968Z,12.30
2022-09-21T18:08:50.642Z,14.20
2022-09-21T18:11:48.070Z,18.50
2022-09-21T18:14:41.117Z,16.50
2022-09-21T18:17:26.630Z,11.80
2022-09-21T18:20:13.431Z,11.70
2022-09-21T18:22:59.040Z,11.70
2022-09-21T18:25:47.872Z,11.70
2022-09-21T18:28:40.267Z,11.60
2022-09-21T18:31:25.994Z,11.60
2022-09-21T18:34:00.332Z,12.10
2022-09-21T18:36:31.771Z,12.10
2022-09-21T18:39:23.695Z,11.70
2022-09-21T18:42:06.416Z,11.10
2022-09-21T18:44:41.900Z,10.10
2022-09-21T18:47:20.516Z,10.30
2022-09-21T18:50:06.098Z,9.20
2022-09-21T18:52:55.265Z,9.60
2022-09-21T18:55:27.427Z,9.90
2022-09-21T18:57:55.771Z,11.00
2022-09-21T19:00:23.537Z,11.20
2022-09-21T19:03:12.654Z,11.70
2022-09-21T19:05:37.799Z,11.40
2022-09-21T19:08:11.029Z,10.20
2022-09-21T19:10:51.846Z,10.50
2022-09-21T19:13:27.863Z,9.70
2022-09-21T19:16:15.820Z,9.30
2022-09-21T19:19:20.143Z,10.40
2022-09-21T19:21:58.419Z,10.00
2022-09-21T19:24:55.483Z,10.80
2022-09-21T19:27:34.350Z,10.60
2022-09-21T19:30:14.728Z,8.80
2022-09-21T19:32:49.388Z,9.80
2022-09-21T19:35:22.091Z,8.50
2022-09-21T19:37:49.321Z,8.50
2022-09-21T19:40:17.353Z,9.30
2022-09-21T19:42:53.865Z,8.20
2022-09-21T19:45:27.907Z,11.10
2022-09-21T19:47:56.877Z,11.80
2022-09-21T19:50:26.715Z,10.90
2022-09-21T19:53:13.665Z,10.30
2022-09-21T19:55:59.197Z,10.40
2022-09-21T19:58:44.392Z,10.10
2022-09-21T20:01:11.645Z,10.70
2022-09-21T20:03:41.319Z,10.00
2022-09-21T20:06:20.944Z,9.50
2022-09-21T20:08:50.832Z,9.60
2022-09-21T20:11:22.510Z,10.60
2022-09-21T20:14:07.976Z,10.00
2022-09-21T20:16:40.451Z,9.80
2022-09-21T20:19:14.739Z,10.00
2022-09-21T20:21:43.745Z,10.60
2022-09-21T20:24:23.884Z,9.40
2022-09-21T20:26:51.191Z,8.80
2022-09-21T20:29:19.536Z,8.80
2022-09-21T20:31:47.924Z,8.30
2022-09-21T20:34:15.532Z,8.50
2022-09-21T20:36:42.219Z,8.70
2022-09-21T20:41:35.716Z,7.90
2022-09-21T20:46:30.024Z,7.20
2022-09-21T20:49:04.476Z,6.90
2022-09-21T20:51:33.922Z,7.90
2022-09-21T20:54:04.631Z,6.70
2022-09-21T20:56:31.441Z,7.00
2022-09-21T21:01:25.016Z,6.90
2022-09-21T21:03:51.819Z,6.60
2022-09-21T21:08:48.237Z,6.10
2022-09-21T21:13:41.800Z,5.90
2022-09-21T21:16:12.025Z,6.20
2022-09-21T21:18:42.515Z,5.50
2022-09-21T21:21:09.399Z,6.10
2022-09-21T21:23:56.431Z,5.40
2022-09-21T21:26:38.197Z,5.70
2022-09-21T21:29:09.801Z,5.60
2022-09-21T21:34:03.244Z,6.80
2022-09-21T21:38:56.623Z,8.90
2022-09-21T21:41:23.482Z,11.30
2022-09-21T21:46:16.888Z,10.80
2022-09-21T21:48:45.653Z,8.50
2022-09-21T21:51:12.816Z,7.90
2022-09-21T21:53:39.891Z,8.70
2022-09-21T21:56:10.650Z,8.00
2022-09-21T21:58:37.415Z,7.70
2022-09-21T22:03:38.268Z,7.00
2022-09-21T22:06:05.237Z,7.40
2022-09-21T22:08:32.490Z,7.10
2022-09-21T22:10:59.740Z,7.30
2022-09-21T22:13:28.929Z,7.40
2022-09-21T22:16:05.956Z,7.00
2022-09-21T22:18:32.985Z,7.60
2022-09-21T22:21:22.892Z,7.10
2022-09-21T22:23:53.869Z,7.00
2022-09-21T22:26:21.137Z,6.50
2022-09-21T22:28:49.438Z,6.80
2022-09-21T22:31:17.672Z,5.80
2022-09-21T22:33:44.667Z,6.30
2022-09-21T22:36:14.428Z,6.10
2022-09-21T22:38:43.042Z,6.10
2022-09-21T22:41:14.316Z,5.90
2022-09-21T22:43:41.013Z,6.00
2022-09-21T22:46:07.878Z,6.20
2022-09-21T22:48:35.253Z,6.10
2022-09-21T22:51:02.209Z,6.40
2022-09-21T22:53:28.909Z,6.50
2022-09-21T22:58:33.034Z,5.20
2022-09-21T23:01:10.458Z,6.40
2022-09-21T23:03:37.918Z,6.10
2022-09-21T23:06:05.781Z,6.70
2022-09-21T23:08:32.679Z,6.10
2022-09-21T23:11:13.259Z,6.20
2022-09-21T23:13:40.262Z,7.20
2022-09-21T23:16:08.422Z,6.60
2022-09-21T23:18:35.217Z,7.30
2022-09-21T23:23:29.690Z,7.70
2022-09-21T23:26:04.489Z,6.80
2022-09-21T23:28:31.271Z,6.50
2022-09-21T23:33:25.219Z,6.60
2022-09-21T23:35:51.936Z,6.00
2022-09-21T23:40:45.384Z,6.30
2022-09-21T23:45:38.725Z,5.50
2022-09-21T23:48:05.430Z,6.00
2022-09-21T23:52:58.745Z,5.70
2022-09-21T23:55:25.426Z,6.00
2022-09-21T23:57:52.124Z,6.00
